createdAt,value
2023-01-26T00:01:19.362Z,91.13
2023-01-26T00:03:46.793Z,91.15
2023-01-26T00:06:16.055Z,90.89
2023-01-26T00:08:44.662Z,91.40
2023-01-26T00:11:12.089Z,91.62
2023-01-26T00:13:39.590Z,91.57
2023-01-26T00:16:10.485Z,91.14
2023-01-26T00:18:39.188Z,91.50
2023-01-26T00:21:07.072Z,91.12
2023-01-26T00:23:35.189Z,91.25
2023-01-26T00:26:05.728Z,91.29
2023-01-26T00:28:32.411Z,91.34
2023-01-26T00:31:13.170Z,91.40
2023-01-26T00:33:40.295Z,91.40
2023-01-26T00:36:07.976Z,90.94
2023-01-26T00:38:35.316Z,91.36
2023-01-26T00:41:02.130Z,91.50
2023-01-26T00:43:29.194Z,91.46
2023-01-26T00:45:55.895Z,91.54
2023-01-26T00:48:24.669Z,91.18
2023-01-26T00:50:53.303Z,91.26
2023-01-26T00:53:20.327Z,91.98
2023-01-26T00:55:47.130Z,91.61
2023-01-26T00:58:13.838Z,91.29
2023-01-26T01:00:40.664Z,90.98
2023-01-26T01:03:07.851Z,91.40
2023-01-26T01:05:35.180Z,91.27
2023-01-26T01:08:02.533Z,90.96
2023-01-26T01:10:29.477Z,90.82
2023-01-26T01:12:59.166Z,90.94
2023-01-26T01:15:25.930Z,91.16
2023-01-26T01:17:53.101Z,90.54
2023-01-26T01:20:19.909Z,90.79
2023-01-26T01:22:46.682Z,91.01
2023-01-26T01:25:13.468Z,91.60
2023-01-26T01:27:40.225Z,91.25
2023-01-26T01:32:49.789Z,91.22
2023-01-26T01:35:16.460Z,91.14
2023-01-26T01:37:43.102Z,90.82
2023-01-26T01:40:14.877Z,91.25
2023-01-26T01:42:50.684Z,91.59
2023-01-26T01:45:27.176Z,90.87
2023-01-26T01:47:59.590Z,90.64
2023-01-26T01:50:27.523Z,90.83
2023-01-26T01:52:55.895Z,90.96
2023-01-26T01:55:23.424Z,91.91
2023-01-26T01:57:55.332Z,91.93
2023-01-26T02:00:24.034Z,91.25
2023-01-26T02:03:13.076Z,91.92
2023-01-26T02:06:03.800Z,92.39
2023-01-26T02:08:37.857Z,92.44
2023-01-26T02:11:13.107Z,92.16
2023-01-26T02:13:42.499Z,92.30
2023-01-26T02:16:09.353Z,91.88
2023-01-26T02:18:36.377Z,91.46
2023-01-26T02:21:08.799Z,92.01
2023-01-26T02:23:54.027Z,91.49
2023-01-26T02:26:33.612Z,91.63
2023-01-26T02:29:02.141Z,92.44
2023-01-26T02:31:29.366Z,92.53
2023-01-26T02:33:58.855Z,92.37
2023-01-26T02:36:29.552Z,93.68
2023-01-26T02:39:13.165Z,92.96
2023-01-26T02:41:59.061Z,92.81
2023-01-26T02:44:29.291Z,92.07
2023-01-26T02:46:59.143Z,92.47
2023-01-26T02:49:44.701Z,92.47
2023-01-26T02:55:05.841Z,91.64
2023-01-26T02:57:34.611Z,91.79
2023-01-26T03:00:01.851Z,92.25
2023-01-26T03:02:28.873Z,91.95
2023-01-26T03:04:55.668Z,92.03
2023-01-26T03:07:22.618Z,91.59
2023-01-26T03:09:49.490Z,91.87
2023-01-26T03:12:16.178Z,91.70
2023-01-26T03:14:43.536Z,92.13
2023-01-26T03:17:10.289Z,92.20
2023-01-26T03:19:55.419Z,93.06
2023-01-26T03:22:40.610Z,92.24
2023-01-26T03:27:51.596Z,92.46
2023-01-26T03:30:21.184Z,91.74
2023-01-26T03:32:48.066Z,91.94
2023-01-26T03:35:23.073Z,92.81
2023-01-26T03:37:55.126Z,92.74
2023-01-26T03:40:40.954Z,92.86
2023-01-26T03:43:13.156Z,92.92
2023-01-26T03:45:58.714Z,93.31
2023-01-26T03:48:45.695Z,93.62
2023-01-26T03:51:12.225Z,93.78
2023-01-26T03:53:57.408Z,93.79
2023-01-26T03:56:32.978Z,93.79
2023-01-26T03:59:08.518Z,94.92
2023-01-26T04:01:38.016Z,94.75
2023-01-26T04:04:13.655Z,94.30
2023-01-26T04:07:02.421Z,94.54
2023-01-26T04:09:29.722Z,95.08
2023-01-26T04:11:57.196Z,94.50
2023-01-26T04:14:49.419Z,93.60
2023-01-26T04:17:36.864Z,93.57
2023-01-26T04:20:13.154Z,94.25
2023-01-26T04:22:45.355Z,94.07
2023-01-26T04:25:13.172Z,94.76
2023-01-26T04:27:41.978Z,93.72
2023-01-26T04:30:13.488Z,93.46
2023-01-26T04:32:40.356Z,93.61
2023-01-26T04:35:09.471Z,93.37
2023-01-26T04:37:37.671Z,93.36
2023-01-26T04:40:06.110Z,93.95
2023-01-26T04:42:32.872Z,94.13
2023-01-26T04:44:59.581Z,93.82
2023-01-26T04:47:28.905Z,93.33
2023-01-26T04:49:56.005Z,93.55
2023-01-26T04:52:23.230Z,93.19
2023-01-26T04:54:50.097Z,92.95
2023-01-26T04:57:16.934Z,93.51
2023-01-26T04:59:43.814Z,93.40
2023-01-26T05:02:10.790Z,93.44
2023-01-26T05:04:37.569Z,93.49
2023-01-26T05:07:05.100Z,93.08
2023-01-26T05:09:31.800Z,93.51
2023-01-26T05:12:13.264Z,93.08
2023-01-26T05:14:40.068Z,93.56
2023-01-26T05:17:13.251Z,93.14
2023-01-26T05:19:40.374Z,92.92
2023-01-26T05:22:07.047Z,92.64
2023-01-26T05:24:35.300Z,92.73
2023-01-26T05:29:38.265Z,93.56
2023-01-26T05:32:05.233Z,92.56
2023-01-26T05:34:31.941Z,93.02
2023-01-26T05:36:58.583Z,92.37
2023-01-26T05:39:25.199Z,93.34
2023-01-26T05:41:52.342Z,92.95
2023-01-26T05:44:19.461Z,93.11
2023-01-26T05:46:46.318Z,91.92
2023-01-26T05:49:13.032Z,92.76
2023-01-26T05:51:39.788Z,92.76
2023-01-26T05:54:06.461Z,93.71
2023-01-26T05:56:33.217Z,93.53
2023-01-26T05:59:00.097Z,93.58
2023-01-26T06:01:26.788Z,93.95
2023-01-26T06:03:55.086Z,94.83
2023-01-26T06:06:25.034Z,95.43
2023-01-26T06:08:51.767Z,96.21
2023-01-26T06:11:19.458Z,96.04
2023-01-26T06:13:46.212Z,96.61
2023-01-26T06:16:13.656Z,96.27
2023-01-26T06:18:40.370Z,95.96
2023-01-26T06:21:07.231Z,95.28
2023-01-26T06:23:34.052Z,95.44
2023-01-26T06:26:01.801Z,96.47
2023-01-26T06:28:31.555Z,96.17
2023-01-26T06:31:03.234Z,95.67
2023-01-26T06:33:32.517Z,96.70
2023-01-26T06:36:05.992Z,96.91
2023-01-26T06:38:32.948Z,96.22
2023-01-26T06:41:03.479Z,95.35
2023-01-26T06:43:31.503Z,94.83
2023-01-26T06:46:02.880Z,94.54
2023-01-26T06:48:39.062Z,94.62
2023-01-26T06:51:13.242Z,94.69
2023-01-26T06:53:44.150Z,94.38
2023-01-26T06:56:10.936Z,93.82
2023-01-26T06:58:37.584Z,93.20
2023-01-26T07:01:04.791Z,93.63
2023-01-26T07:03:32.074Z,93.61
2023-01-26T07:05:58.793Z,93.61
2023-01-26T07:08:25.443Z,94.31
2023-01-26T07:10:52.163Z,94.47
2023-01-26T07:13:18.910Z,94.22
2023-01-26T07:15:45.738Z,93.81
2023-01-26T07:18:13.309Z,93.56
2023-01-26T07:20:39.991Z,93.38
2023-01-26T07:23:07.143Z,94.13
2023-01-26T07:25:33.762Z,93.44
2023-01-26T07:28:00.417Z,93.29
2023-01-26T07:30:27.435Z,93.86
2023-01-26T07:32:54.789Z,94.65
2023-01-26T07:35:21.523Z,93.69
2023-01-26T07:37:48.156Z,94.50
2023-01-26T07:40:15.000Z,94.68
2023-01-26T07:42:42.995Z,94.24
2023-01-26T07:45:10.035Z,94.60
2023-01-26T07:47:36.789Z,94.57
2023-01-26T07:50:04.053Z,94.39
2023-01-26T07:52:30.724Z,94.91
2023-01-26T07:54:57.436Z,95.22
2023-01-26T07:57:24.134Z,95.22
2023-01-26T07:59:50.805Z,95.91
2023-01-26T08:02:17.462Z,96.60
2023-01-26T08:04:44.154Z,96.84
2023-01-26T08:07:10.823Z,96.59
2023-01-26T08:09:37.690Z,96.92
2023-01-26T08:12:04.798Z,97.04
2023-01-26T08:14:46.426Z,97.43
2023-01-26T08:17:13.943Z,97.35
2023-01-26T08:19:40.636Z,98.19
2023-01-26T08:22:07.341Z,97.51
2023-01-26T08:24:34.070Z,98.78
2023-01-26T08:27:00.790Z,99.63
2023-01-26T08:29:27.576Z,100.00
2023-01-26T08:31:54.431Z,100.00
2023-01-26T08:34:26.319Z,100.00
2023-01-26T08:36:53.426Z,100.00
2023-01-26T08:39:20.065Z,100.00
2023-01-26T08:41:47.373Z,100.00
2023-01-26T08:44:14.038Z,100.00
2023-01-26T08:46:40.691Z,100.00
2023-01-26T08:49:07.393Z,100.00
2023-01-26T08:51:34.076Z,100.00
2023-01-26T08:54:00.782Z,100.00
2023-01-26T08:56:27.623Z,100.00
2023-01-26T08:58:54.261Z,100.00
2023-01-26T09:01:20.899Z,97.86
2023-01-26T09:03:47.650Z,99.06
2023-01-26T09:06:16.002Z,100.00
2023-01-26T09:08:42.684Z,99.56
2023-01-26T09:11:09.749Z,99.21
2023-01-26T09:13:37.529Z,100.00
2023-01-26T09:16:08.635Z,99.85
2023-01-26T09:18:35.298Z,99.82
2023-01-26T09:21:06.740Z,100.00
2023-01-26T09:23:34.730Z,100.00
2023-01-26T09:26:02.061Z,97.62
2023-01-26T09:28:28.864Z,98.37
2023-01-26T09:30:55.765Z,98.19
2023-01-26T09:33:23.107Z,97.95
2023-01-26T09:35:52.428Z,97.74
2023-01-26T09:38:19.230Z,97.36
2023-01-26T09:40:59.907Z,98.01
2023-01-26T09:43:39.886Z,96.93
2023-01-26T09:46:12.394Z,97.12
2023-01-26T09:49:06.054Z,97.29
2023-01-26T09:51:40.041Z,96.27
2023-01-26T09:54:13.322Z,95.32
2023-01-26T09:56:40.362Z,95.10
2023-01-26T09:59:12.381Z,94.83
2023-01-26T10:02:04.796Z,94.20
2023-01-26T10:04:36.882Z,94.75
2023-01-26T10:07:09.770Z,94.75
2023-01-26T10:09:38.809Z,94.60
2023-01-26T10:12:13.428Z,93.93
2023-01-26T10:14:45.519Z,92.81
2023-01-26T10:17:13.411Z,92.12
2023-01-26T10:19:45.520Z,92.69
2023-01-26T10:22:13.511Z,91.24
2023-01-26T10:24:40.514Z,90.70
2023-01-26T10:27:13.351Z,90.13
2023-01-26T10:29:40.054Z,88.59
2023-01-26T10:32:14.366Z,87.39
2023-01-26T10:34:42.436Z,87.00
2023-01-26T10:37:13.512Z,87.69
2023-01-26T10:39:58.948Z,87.31
2023-01-26T10:42:29.506Z,87.23
2023-01-26T10:44:59.286Z,86.67
2023-01-26T10:47:27.635Z,85.51
2023-01-26T10:50:12.408Z,86.26
2023-01-26T10:52:39.175Z,85.31
2023-01-26T10:55:12.783Z,84.19
2023-01-26T10:57:42.075Z,83.92
2023-01-26T11:00:13.451Z,83.64
2023-01-26T11:02:50.839Z,84.29
2023-01-26T11:05:25.508Z,83.24
2023-01-26T11:07:58.877Z,81.79
2023-01-26T11:10:35.044Z,82.79
2023-01-26T11:13:13.563Z,83.12
2023-01-26T11:15:47.909Z,82.78
2023-01-26T11:18:42.921Z,81.17
2023-01-26T11:21:17.106Z,82.20
2023-01-26T11:24:09.065Z,82.10
2023-01-26T11:26:44.760Z,82.64
2023-01-26T11:32:06.324Z,82.27
2023-01-26T11:34:44.634Z,81.41
2023-01-26T11:37:13.740Z,83.08
2023-01-26T11:40:13.515Z,80.90
2023-01-26T11:43:05.342Z,81.17
2023-01-26T11:46:05.793Z,83.32
2023-01-26T11:48:54.193Z,80.87
2023-01-26T11:51:45.599Z,81.37
2023-01-26T11:54:12.494Z,83.49
2023-01-26T11:56:49.025Z,83.44
2023-01-26T11:59:30.305Z,81.01
2023-01-26T12:02:04.647Z,81.07
2023-01-26T12:04:41.909Z,80.49
2023-01-26T12:07:13.465Z,82.06
2023-01-26T12:09:45.730Z,81.81
2023-01-26T12:12:13.482Z,80.64
2023-01-26T12:14:43.701Z,81.38
2023-01-26T12:17:18.535Z,81.86
2023-01-26T12:20:11.074Z,83.08
2023-01-26T12:22:40.671Z,82.45
2023-01-26T12:25:19.427Z,82.05
2023-01-26T12:27:56.059Z,81.32
2023-01-26T12:30:30.869Z,82.54
2023-01-26T12:32:57.672Z,80.62
2023-01-26T12:36:05.676Z,82.17
2023-01-26T12:38:35.271Z,81.16
2023-01-26T12:41:13.481Z,81.97
2023-01-26T12:43:57.210Z,82.87
2023-01-26T12:46:27.272Z,83.52
2023-01-26T12:49:03.038Z,83.61
2023-01-26T12:51:33.144Z,85.00
2023-01-26T12:54:06.557Z,85.02
2023-01-26T12:56:48.291Z,85.04
2023-01-26T12:59:39.733Z,84.39
2023-01-26T13:02:13.605Z,84.43
2023-01-26T13:04:42.552Z,84.36
2023-01-26T13:07:13.499Z,84.69
2023-01-26T13:10:13.704Z,84.07
2023-01-26T13:13:01.140Z,84.67
2023-01-26T13:15:32.502Z,85.07
2023-01-26T13:18:04.550Z,84.88
2023-01-26T13:20:40.430Z,85.56
2023-01-26T13:23:13.488Z,85.97
2023-01-26T13:25:40.247Z,86.31
2023-01-26T13:28:12.498Z,86.16
2023-01-26T13:30:44.021Z,87.30
2023-01-26T13:33:13.509Z,87.29
2023-01-26T13:35:41.106Z,88.41
2023-01-26T13:38:13.567Z,88.07
2023-01-26T13:40:44.112Z,88.88
2023-01-26T13:43:25.623Z,88.96
2023-01-26T13:46:14.797Z,88.49
2023-01-26T13:48:47.872Z,88.59
2023-01-26T13:51:19.041Z,88.79
2023-01-26T13:54:13.444Z,89.05
2023-01-26T13:56:43.196Z,89.62
2023-01-26T14:01:49.288Z,89.75
2023-01-26T14:04:24.231Z,89.94
2023-01-26T14:06:57.170Z,90.57
2023-01-26T14:09:28.092Z,90.27
2023-01-26T14:12:04.014Z,89.92
2023-01-26T14:14:35.185Z,90.63
2023-01-26T14:17:07.820Z,90.36
2023-01-26T14:19:40.415Z,89.98
2023-01-26T14:22:12.599Z,90.44
2023-01-26T14:24:41.448Z,90.73
2023-01-26T14:27:13.534Z,89.12
2023-01-26T14:29:40.278Z,90.56
2023-01-26T14:32:13.538Z,90.71
2023-01-26T14:34:53.057Z,88.91
2023-01-26T14:37:19.926Z,90.35
2023-01-26T14:39:48.297Z,89.99
2023-01-26T14:42:19.117Z,90.27
2023-01-26T14:44:46.631Z,90.15
2023-01-26T14:47:30.470Z,90.11
2023-01-26T14:50:07.102Z,89.48
2023-01-26T14:52:39.601Z,88.47
2023-01-26T14:55:13.479Z,89.01
2023-01-26T14:57:40.228Z,89.24
2023-01-26T15:00:10.896Z,88.74
2023-01-26T15:02:47.177Z,88.91
2023-01-26T15:05:20.921Z,88.57
2023-01-26T15:07:59.741Z,88.39
2023-01-26T15:13:41.797Z,89.14
2023-01-26T15:16:13.638Z,88.19
2023-01-26T15:18:40.436Z,88.82
2023-01-26T15:21:12.614Z,88.93
2023-01-26T15:23:59.898Z,88.33
2023-01-26T15:26:31.216Z,87.68
2023-01-26T15:29:01.107Z,87.59
2023-01-26T15:31:34.675Z,87.62
2023-01-26T15:34:02.292Z,88.09
2023-01-26T15:36:47.799Z,87.44
2023-01-26T15:39:16.893Z,87.50
2023-01-26T15:41:46.505Z,87.16
2023-01-26T15:44:18.324Z,87.53
2023-01-26T15:46:45.914Z,86.93
2023-01-26T15:49:12.836Z,87.09
2023-01-26T15:51:39.679Z,86.47
2023-01-26T15:54:06.745Z,86.15
2023-01-26T15:56:33.651Z,86.14
2023-01-26T15:59:00.416Z,86.09
2023-01-26T16:01:27.217Z,86.17
2023-01-26T16:03:54.097Z,85.83
2023-01-26T16:06:34.190Z,86.18
2023-01-26T16:09:00.865Z,85.92
2023-01-26T16:11:35.327Z,85.84
2023-01-26T16:14:04.270Z,86.06
2023-01-26T16:16:32.841Z,86.17
2023-01-26T16:18:59.998Z,85.89
2023-01-26T16:21:33.885Z,85.18
2023-01-26T16:24:04.250Z,84.18
2023-01-26T16:26:35.774Z,83.96
2023-01-26T16:29:02.487Z,83.95
2023-01-26T16:31:32.102Z,84.30
2023-01-26T16:34:01.130Z,83.94
2023-01-26T16:36:28.531Z,83.57
2023-01-26T16:38:55.413Z,84.04
2023-01-26T16:41:25.585Z,84.19
2023-01-26T16:43:58.750Z,83.66
2023-01-26T16:46:26.417Z,83.52
2023-01-26T16:48:54.289Z,83.11
2023-01-26T16:51:30.050Z,82.56
2023-01-26T16:53:57.543Z,83.16
2023-01-26T16:56:25.415Z,81.31
2023-01-26T16:58:52.356Z,81.57
2023-01-26T17:01:42.042Z,82.55
2023-01-26T17:04:10.754Z,82.32
2023-01-26T17:06:37.575Z,82.78
2023-01-26T17:09:05.239Z,82.22
2023-01-26T17:11:31.919Z,82.30
2023-01-26T17:13:59.428Z,82.45
2023-01-26T17:16:33.344Z,82.20
2023-01-26T17:19:00.125Z,83.20
2023-01-26T17:21:26.974Z,81.77
2023-01-26T17:23:55.939Z,82.20
2023-01-26T17:26:23.497Z,82.00
2023-01-26T17:28:54.594Z,82.69
2023-01-26T17:31:25.206Z,81.96
2023-01-26T17:33:55.312Z,82.49
2023-01-26T17:36:22.053Z,82.59
2023-01-26T17:38:55.282Z,82.69
2023-01-26T17:41:22.032Z,82.61
2023-01-26T17:43:48.774Z,82.66
2023-01-26T17:46:17.752Z,82.75
2023-01-26T17:48:45.568Z,82.62
2023-01-26T17:51:12.593Z,83.08
2023-01-26T17:53:44.240Z,83.13
2023-01-26T17:58:38.789Z,83.28
2023-01-26T18:01:07.582Z,82.86
2023-01-26T18:03:35.544Z,83.25
2023-01-26T18:06:02.298Z,82.85
2023-01-26T18:08:29.371Z,83.63
2023-01-26T18:11:00.862Z,83.80
2023-01-26T18:13:29.219Z,83.95
2023-01-26T18:15:56.056Z,83.18
2023-01-26T18:18:28.222Z,83.91
2023-01-26T18:20:55.540Z,83.92
2023-01-26T18:23:24.106Z,82.87
2023-01-26T18:25:53.075Z,82.88
2023-01-26T18:28:19.846Z,82.86
2023-01-26T18:30:46.694Z,83.36
2023-01-26T18:33:13.998Z,83.76
2023-01-26T18:35:40.916Z,83.96
2023-01-26T18:38:07.722Z,84.69
2023-01-26T18:40:34.682Z,84.25
2023-01-26T18:43:01.577Z,84.30
2023-01-26T18:45:28.354Z,83.86
2023-01-26T18:47:55.150Z,83.76
2023-01-26T18:50:21.903Z,83.60
2023-01-26T18:52:48.664Z,84.21
2023-01-26T18:55:15.541Z,83.31
2023-01-26T18:57:45.308Z,83.91
2023-01-26T19:02:41.468Z,83.82
2023-01-26T19:07:39.436Z,83.62
2023-01-26T19:10:06.649Z,84.36
2023-01-26T19:12:33.611Z,84.30
2023-01-26T19:15:00.329Z,83.96
2023-01-26T19:17:27.099Z,83.80
2023-01-26T19:19:54.887Z,83.24
2023-01-26T19:22:23.137Z,84.08
2023-01-26T19:24:49.906Z,83.76
2023-01-26T19:27:16.910Z,83.53
2023-01-26T19:29:43.574Z,83.89
2023-01-26T19:32:10.403Z,83.77
2023-01-26T19:34:37.301Z,83.58
2023-01-26T19:37:04.032Z,83.49
2023-01-26T19:39:31.683Z,82.73
2023-01-26T19:42:01.753Z,83.31
2023-01-26T19:44:28.767Z,83.85
2023-01-26T19:46:55.989Z,83.70
2023-01-26T19:49:23.143Z,83.52
2023-01-26T19:51:54.479Z,83.95
2023-01-26T19:54:24.506Z,83.60
2023-01-26T19:56:51.797Z,83.95
2023-01-26T19:59:18.740Z,84.04
2023-01-26T20:01:45.463Z,84.35
2023-01-26T20:04:12.802Z,83.71
2023-01-26T20:06:39.685Z,84.07
2023-01-26T20:09:10.801Z,83.66
2023-01-26T20:11:37.599Z,83.35
2023-01-26T20:14:08.743Z,83.28
2023-01-26T20:16:36.102Z,83.22
2023-01-26T20:19:04.498Z,83.66
2023-01-26T20:21:32.440Z,84.06
2023-01-26T20:24:05.261Z,84.20
2023-01-26T20:26:33.465Z,84.21
2023-01-26T20:29:00.517Z,84.01
2023-01-26T20:31:27.873Z,84.22
2023-01-26T20:33:55.192Z,84.22
2023-01-26T20:36:25.246Z,85.12
2023-01-26T20:39:01.726Z,84.68
2023-01-26T20:41:30.495Z,84.50
2023-01-26T20:44:01.634Z,84.11
2023-01-26T20:46:33.696Z,84.06
2023-01-26T20:49:01.164Z,84.29
2023-01-26T20:51:36.007Z,84.93
2023-01-26T20:56:38.417Z,84.43
2023-01-26T20:59:06.957Z,84.47
2023-01-26T21:01:44.163Z,84.77
2023-01-26T21:04:10.901Z,84.73
2023-01-26T21:06:39.158Z,84.49
2023-01-26T21:09:06.070Z,84.55
2023-01-26T21:11:33.604Z,84.56
2023-01-26T21:14:02.117Z,84.34
2023-01-26T21:16:31.093Z,84.96
2023-01-26T21:18:58.517Z,84.95
2023-01-26T21:21:25.254Z,84.45
2023-01-26T21:23:52.473Z,84.27
2023-01-26T21:26:23.785Z,84.55
2023-01-26T21:28:59.815Z,85.01
2023-01-26T21:31:30.058Z,84.86
2023-01-26T21:34:02.970Z,85.16
2023-01-26T21:36:31.477Z,85.04
2023-01-26T21:38:59.990Z,85.14
2023-01-26T21:41:47.865Z,84.91
2023-01-26T21:44:23.396Z,84.80
2023-01-26T21:46:55.946Z,84.55
2023-01-26T21:49:23.945Z,84.64
2023-01-26T21:52:10.271Z,84.33
2023-01-26T21:54:37.150Z,84.85
2023-01-26T21:59:38.146Z,84.34
2023-01-26T22:02:04.810Z,84.16
2023-01-26T22:04:31.907Z,84.85
2023-01-26T22:07:02.060Z,84.43
2023-01-26T22:09:30.237Z,85.16
2023-01-26T22:11:56.880Z,85.29
2023-01-26T22:14:27.696Z,84.58
2023-01-26T22:16:56.804Z,85.25
2023-01-26T22:19:24.013Z,84.76
2023-01-26T22:21:53.608Z,84.48
2023-01-26T22:24:21.525Z,84.86
2023-01-26T22:26:49.221Z,85.35
2023-01-26T22:29:16.142Z,85.27
2023-01-26T22:31:43.179Z,85.33
2023-01-26T22:36:38.334Z,85.10
2023-01-26T22:39:05.187Z,85.50
2023-01-26T22:41:31.950Z,85.28
2023-01-26T22:44:01.890Z,85.65
2023-01-26T22:46:30.608Z,85.66
2023-01-26T22:48:58.879Z,86.56
2023-01-26T22:51:30.356Z,85.95
2023-01-26T22:53:58.427Z,86.06
2023-01-26T22:56:26.595Z,85.89
2023-01-26T22:59:00.279Z,85.77
2023-01-26T23:01:32.856Z,85.92
2023-01-26T23:04:00.929Z,86.12
2023-01-26T23:06:28.344Z,86.18
2023-01-26T23:08:55.449Z,85.92
2023-01-26T23:11:24.705Z,86.17
2023-01-26T23:13:53.339Z,86.60
2023-01-26T23:16:23.238Z,86.71
2023-01-26T23:18:50.771Z,86.77
2023-01-26T23:21:17.667Z,86.52
2023-01-26T23:23:44.845Z,86.60
2023-01-26T23:28:40.909Z,86.69
2023-01-26T23:31:09.033Z,87.06
2023-01-26T23:33:36.726Z,87.11
2023-01-26T23:36:04.448Z,86.63
2023-01-26T23:38:31.352Z,86.94
2023-01-26T23:41:00.477Z,87.13
2023-01-26T23:43:27.720Z,86.68
2023-01-26T23:45:56.745Z,86.36
2023-01-26T23:48:24.738Z,86.79
2023-01-26T23:51:08.938Z,86.51
2023-01-26T23:53:37.071Z,86.67
2023-01-26T23:56:10.322Z,87.08
2023-01-26T23:58:37.648Z,86.03
